Time;durP1;ratioP1;P1;durP2;ratioP2;P2;SDS_P1;SDS_P2;PMS_P1;PMS_P2;Temp;Humidity;BMP_temperature;BMP_pressure;BME280_temperature;BME280_humidity;BME280_pressure;Samples;Min_cycle;Max_cycle;Signal;HPM_P1;HPM_P2
2023/01/13 00:02:21;;;;;;;3.70;1.07;;;9.00;1.00;;;;;;5056721;28;20421;-38
2023/01/13 00:04:47;;;;;;;1.63;0.70;;;9.00;1.00;;;;;;5057291;28;20862;-39
2023/01/13 00:07:13;;;;;;;3.03;1.40;;;9.00;1.00;;;;;;5057630;28;20440;-39
2023/01/13 00:09:38;;;;;;;2.27;0.97;;;9.00;1.00;;;;;;5058797;28;20182;-39
2023/01/13 00:12:05;;;;;;;4.70;1.10;;;9.10;1.00;;;;;;5057440;28;20182;-39
2023/01/13 00:14:33;;;;;;;2.80;0.90;;;9.00;1.00;;;;;;5058479;28;20581;-38
2023/01/13 00:16:59;;;;;;;3.47;1.13;;;9.00;1.00;;;;;;5057979;28;20570;-46
2023/01/13 00:19:25;;;;;;;1.87;1.00;;;9.00;1.00;;;;;;5058617;28;20464;-39
2023/01/13 00:21:50;;;;;;;2.30;1.00;;;9.00;1.00;;;;;;5058180;28;20193;-38
2023/01/13 00:24:16;;;;;;;2.57;1.00;;;9.00;1.00;;;;;;5059143;28;20178;-40
2023/01/13 00:26:42;;;;;;;4.60;1.10;;;9.00;1.00;;;;;;5058431;28;20553;-39
2023/01/13 00:29:07;;;;;;;2.20;1.10;;;9.10;1.00;;;;;;5059622;28;20182;-37
2023/01/13 00:31:33;;;;;;;3.23;1.10;;;9.10;1.00;;;;;;5060377;28;20213;-40
2023/01/13 00:33:59;;;;;;;1.50;0.83;;;9.10;1.00;;;;;;5060946;28;20467;-37
2023/01/13 00:36:26;;;;;;;1.77;0.80;;;9.10;99.90;;;;;;5059872;28;20273;-39
2023/01/13 00:38:51;;;;;;;2.37;0.90;;;9.10;99.90;;;;;;5060767;28;20416;-39
2023/01/13 00:41:20;;;;;;;1.50;0.80;;;9.10;99.90;;;;;;5058138;28;20681;-38
2023/01/13 00:43:46;;;;;;;2.40;0.80;;;9.20;99.90;;;;;;5058594;28;20256;-39
2023/01/13 00:46:13;;;;;;;2.60;1.00;;;9.20;99.90;;;;;;5058010;28;20436;-40
2023/01/13 00:48:39;;;;;;;3.20;1.00;;;9.30;99.90;;;;;;5057983;28;20464;-39
2023/01/13 00:51:13;;;;;;;2.47;0.87;;;9.40;99.90;;;;;;5057980;28;20445;-38
2023/01/13 00:53:42;;;;;;;3.30;0.90;;;9.40;96.50;;;;;;5057812;28;20423;-38
2023/01/13 00:56:13;;;;;;;5.10;1.27;;;9.40;54.00;;;;;;5057512;28;20535;-38
2023/01/13 00:58:39;;;;;;;3.30;0.70;;;9.30;44.10;;;;;;5056633;28;20423;-38
2023/01/13 01:01:07;;;;;;;1.30;0.77;;;9.40;37.50;;;;;;5057486;28;20490;-39
2023/01/13 01:03:33;;;;;;;3.50;1.30;;;9.40;47.20;;;;;;5057289;28;20423;-40
2023/01/13 01:06:23;;;;;;;2.10;0.90;;;9.40;21.40;;;;;;5057605;28;20424;-38
2023/01/13 01:08:49;;;;;;;3.87;1.10;;;9.40;1.00;;;;;;5058092;28;20499;-38
2023/01/13 01:11:21;;;;;;;1.90;0.90;;;9.40;1.00;;;;;;5057763;28;20424;-39
2023/01/13 01:13:47;;;;;;;2.43;1.00;;;9.50;1.00;;;;;;5057837;28;20511;-40
2023/01/13 01:16:15;;;;;;;2.87;0.90;;;9.40;1.00;;;;;;5057527;28;20482;-38
2023/01/13 01:18:43;;;;;;;1.87;0.60;;;9.40;1.00;;;;;;5057559;28;20832;-39
2023/01/13 01:21:09;;;;;;;1.37;0.73;;;9.40;15.20;;;;;;5057344;28;20427;-39
2023/01/13 01:23:36;;;;;;;2.93;0.97;;;9.50;1.00;;;;;;5057114;28;20839;-40
2023/01/13 01:26:04;;;;;;;3.03;1.40;;;9.50;1.00;;;;;;5056329;28;20543;-39
2023/01/13 01:28:29;;;;;;;1.00;0.60;;;9.50;1.00;;;;;;5057361;28;20436;-38
2023/01/13 01:30:57;;;;;;;3.27;1.00;;;9.50;1.00;;;;;;5057262;28;20493;-38
2023/01/13 01:33:23;;;;;;;1.90;0.90;;;9.50;1.00;;;;;;5057333;28;20192;-39
2023/01/13 01:35:48;;;;;;;4.97;1.10;;;9.50;1.00;;;;;;5057445;28;20546;-38
2023/01/13 01:38:14;;;;;;;1.23;0.70;;;9.50;1.00;;;;;;5057261;28;20189;-39
2023/01/13 01:40:40;;;;;;;2.30;1.10;;;9.50;6.00;;;;;;5057143;28;20577;-38
2023/01/13 01:45:58;;;;;;;1.53;0.80;;;9.50;99.90;;;;;;5056972;28;20528;-39
2023/01/13 01:48:25;;;;;;;2.40;1.00;;;9.40;99.90;;;;;;5056991;28;20476;-38
2023/01/13 01:50:51;;;;;;;2.67;1.13;;;9.40;99.90;;;;;;5057190;28;20242;-39
2023/01/13 01:53:18;;;;;;;1.17;0.73;;;9.30;1.00;;;;;;5056488;28;20432;-39
2023/01/13 01:55:44;;;;;;;4.13;1.40;;;9.30;1.00;;;;;;5056034;28;20617;-39
2023/01/13 01:58:17;;;;;;;3.53;1.53;;;9.20;87.80;;;;;;5055624;28;20535;-38
2023/01/13 02:00:43;;;;;;;1.27;0.70;;;9.20;43.10;;;;;;5056890;28;20451;-39
2023/01/13 02:03:10;;;;;;;2.40;0.97;;;9.20;99.90;;;;;;5056614;28;20419;-39
2023/01/13 02:05:35;;;;;;;2.47;1.00;;;9.20;99.90;;;;;;5057655;28;20823;-38
2023/01/13 02:08:01;;;;;;;8.53;0.97;;;9.20;99.90;;;;;;5057218;28;20436;-39
2023/01/13 02:10:29;;;;;;;1.30;0.87;;;9.20;99.90;;;;;;5057168;28;20173;-38
2023/01/13 02:13:00;;;;;;;2.83;0.93;;;9.20;99.90;;;;;;5056314;28;20424;-38
2023/01/13 02:16:04;;;;;;;5.03;0.90;;;9.20;99.90;;;;;;5056219;28;20467;-38
2023/01/13 02:19:03;;;;;;;1.93;0.80;;;9.20;99.90;;;;;;4979499;28;20449;-39
2023/01/13 02:21:53;;;;;;;1.67;0.70;;;9.20;39.30;;;;;;5056228;28;20412;-38
2023/01/13 02:24:54;;;;;;;2.70;1.27;;;9.20;8.00;;;;;;5056320;28;20434;-36
2023/01/13 02:27:44;;;;;;;2.10;1.13;;;9.20;92.40;;;;;;5057587;28;20485;-36
2023/01/13 02:33:28;;;;;;;1.40;0.70;;;9.20;68.40;;;;;;5056458;28;20422;-36
2023/01/13 02:36:10;;;;;;;2.33;1.00;;;9.20;1.00;;;;;;5056783;28;20455;-38
2023/01/13 02:38:47;;;;;;;1.63;0.90;;;9.20;1.00;;;;;;5054455;28;20725;-38
2023/01/13 02:44:25;;;;;;;1.90;1.00;;;9.20;1.00;;;;;;5057553;28;20940;-37
2023/01/13 02:47:09;;;;;;;2.97;0.93;;;9.30;1.00;;;;;;5058946;28;20507;-37
2023/01/13 02:49:39;;;;;;;1.97;1.17;;;9.30;1.00;;;;;;5059419;28;20463;-37
2023/01/13 02:52:16;;;;;;;3.13;1.00;;;9.20;24.90;;;;;;5057430;28;20462;-37
2023/01/13 02:54:46;;;;;;;1.83;0.90;;;9.20;99.90;;;;;;5057158;28;21036;-37
2023/01/13 02:57:14;;;;;;;2.50;0.80;;;9.10;99.90;;;;;;5056544;28;20455;-38
2023/01/13 02:59:40;;;;;;;2.37;1.30;;;9.10;99.90;;;;;;5057656;28;20426;-38
2023/01/13 03:02:08;;;;;;;3.27;1.20;;;9.10;99.90;;;;;;5059184;28;20523;-37
2023/01/13 03:04:49;;;;;;;2.30;1.00;;;9.10;99.90;;;;;;5058139;28;20444;-39
2023/01/13 03:07:38;;;;;;;3.00;1.00;;;9.10;99.90;;;;;;5059805;28;20516;-38
2023/01/13 03:10:10;;;;;;;3.03;0.90;;;9.10;99.90;;;;;;5060534;28;20404;-39
2023/01/13 03:12:59;;;;;;;1.67;0.70;;;9.10;99.90;;;;;;5060894;28;20428;-38
2023/01/13 03:15:52;;;;;;;2.87;0.80;;;9.10;99.90;;;;;;5060525;28;20508;-38
2023/01/13 03:18:26;;;;;;;1.77;0.93;;;9.10;99.90;;;;;;5060381;28;20412;-38
2023/01/13 03:21:14;;;;;;;2.80;1.00;;;9.10;99.90;;;;;;5060115;28;20676;-38
2023/01/13 03:23:49;;;;;;;1.10;0.80;;;9.10;99.90;;;;;;5058043;28;20874;-38
2023/01/13 03:26:51;;;;;;;1.30;0.70;;;9.10;1.00;;;;;;5058196;28;20854;-38
2023/01/13 03:29:25;;;;;;;5.63;1.00;;;9.10;1.00;;;;;;5051959;28;20424;-39
2023/01/13 03:31:58;;;;;;;1.37;0.97;;;9.10;1.00;;;;;;5059160;28;20412;-38
2023/01/13 03:34:30;;;;;;;3.20;1.10;;;9.10;1.00;;;;;;5058935;28;20488;-38
2023/01/13 03:36:56;;;;;;;1.50;0.60;;;9.10;1.00;;;;;;5057534;28;20439;-39
2023/01/13 03:39:28;;;;;;;2.50;1.03;;;9.10;1.00;;;;;;5058060;28;20827;-38
2023/01/13 03:41:58;;;;;;;1.80;0.63;;;9.10;1.00;;;;;;5058528;28;20430;-38
2023/01/13 03:44:59;;;;;;;1.93;0.80;;;9.10;1.00;;;;;;5058181;28;20419;-37
2023/01/13 03:47:44;;;;;;;3.77;0.70;;;9.10;1.00;;;;;;4998216;28;20447;-38
2023/01/13 03:50:17;;;;;;;2.47;0.90;;;9.10;1.00;;;;;;5054433;28;20754;-38
2023/01/13 03:52:52;;;;;;;2.70;0.70;;;9.10;1.00;;;;;;5041956;28;20444;-38
2023/01/13 03:55:22;;;;;;;1.53;0.87;;;9.10;1.00;;;;;;5057156;28;20477;-38
2023/01/13 03:57:50;;;;;;;1.70;0.80;;;9.10;3.30;;;;;;5057576;28;20436;-37
2023/01/13 04:00:17;;;;;;;1.30;0.73;;;9.10;1.00;;;;;;5059240;28;20404;-39
2023/01/13 04:02:50;;;;;;;2.53;0.63;;;9.10;1.00;;;;;;5057016;28;20424;-38
2023/01/13 04:05:16;;;;;;;3.47;1.10;;;9.10;1.00;;;;;;5057585;28;20408;-39
2023/01/13 04:07:48;;;;;;;4.80;1.00;;;9.10;1.00;;;;;;5061874;28;20459;-38
2023/01/13 04:10:19;;;;;;;1.23;0.70;;;9.10;1.00;;;;;;5057511;28;20400;-38
2023/01/13 04:13:02;;;;;;;1.60;0.70;;;9.10;1.00;;;;;;5057903;28;21091;-38
2023/01/13 04:15:40;;;;;;;2.20;0.83;;;9.10;1.00;;;;;;5057205;28;20483;-38
2023/01/13 04:18:14;;;;;;;1.60;0.90;;;9.10;1.00;;;;;;5058539;28;20427;-38
2023/01/13 04:20:41;;;;;;;6.50;0.93;;;9.10;1.00;;;;;;5058992;28;20811;-38
2023/01/13 04:23:07;;;;;;;3.37;1.10;;;9.10;1.00;;;;;;5058675;28;20456;-38
2023/01/13 04:25:33;;;;;;;1.47;0.97;;;9.10;1.00;;;;;;5058910;28;20429;-38
2023/01/13 04:27:59;;;;;;;1.53;0.87;;;9.10;1.00;;;;;;5059101;28;20424;-38
2023/01/13 04:30:24;;;;;;;2.50;0.97;;;9.10;1.00;;;;;;5058398;28;20239;-38
2023/01/13 04:32:50;;;;;;;5.03;0.90;;;9.10;1.00;;;;;;5058062;28;20181;-38
2023/01/13 04:35:16;;;;;;;1.93;0.70;;;9.10;1.00;;;;;;5056637;28;20542;-39
2023/01/13 04:37:41;;;;;;;1.67;0.70;;;9.20;1.00;;;;;;5057421;28;20210;-38
2023/01/13 04:40:08;;;;;;;1.60;1.03;;;9.10;1.00;;;;;;5057404;28;20238;-39
2023/01/13 04:42:33;;;;;;;1.37;0.77;;;9.10;1.00;;;;;;5057167;28;20201;-38
2023/01/13 04:44:59;;;;;;;1.43;0.70;;;9.20;1.00;;;;;;5055356;28;20428;-38
2023/01/13 04:47:24;;;;;;;1.50;0.60;;;9.30;99.90;;;;;;5056129;28;20197;-38
2023/01/13 04:49:50;;;;;;;1.80;0.80;;;9.20;99.90;;;;;;5056843;28;20616;-39
2023/01/13 04:52:16;;;;;;;1.03;0.60;;;9.20;99.90;;;;;;5056712;28;20220;-38
2023/01/13 04:54:41;;;;;;;1.50;0.80;;;9.20;99.90;;;;;;5056091;28;20209;-38
2023/01/13 04:57:07;;;;;;;2.23;1.00;;;9.20;99.90;;;;;;5056958;28;20182;-38
2023/01/13 04:59:33;;;;;;;2.43;0.90;;;9.20;99.90;;;;;;5058021;28;20173;-38
2023/01/13 05:01:58;;;;;;;3.03;0.70;;;9.20;99.90;;;;;;5057730;28;20241;-37
2023/01/13 05:04:24;;;;;;;1.57;0.80;;;9.30;99.90;;;;;;5055376;28;20532;-37
2023/01/13 05:06:49;;;;;;;2.93;0.63;;;9.30;99.90;;;;;;5054717;28;20472;-38
2023/01/13 05:09:15;;;;;;;2.27;0.70;;;9.20;99.90;;;;;;5054213;28;20185;-39
2023/01/13 05:17:15;;;;;;;1.80;0.67;;;9.20;99.90;;;;;;5053517;28;20762;-37
2023/01/13 05:19:40;;;;;;;1.13;0.60;;;9.20;99.90;;;;;;5054341;28;20423;-38
2023/01/13 05:27:34;;;;;;;1.30;0.70;;;9.20;99.90;;;;;;5056444;28;20426;-38
2023/01/13 05:30:00;;;;;;;1.27;0.50;;;9.20;99.90;;;;;;5055385;28;20530;-39
2023/01/13 05:32:29;;;;;;;1.27;0.50;;;9.20;99.90;;;;;;5055167;28;20735;-38
2023/01/13 05:34:55;;;;;;;1.70;0.60;;;9.20;99.90;;;;;;5055038;28;20472;-37
2023/01/13 05:37:21;;;;;;;2.80;0.63;;;9.20;99.90;;;;;;5054611;28;20519;-37
2023/01/13 05:45:15;;;;;;;1.67;0.70;;;9.20;99.90;;;;;;5060705;28;20415;-39
2023/01/13 05:47:41;;;;;;;3.60;0.83;;;9.30;99.90;;;;;;5059627;28;20432;-39
2023/01/13 05:50:08;;;;;;;1.17;0.60;;;9.20;99.90;;;;;;5058317;28;20316;-37
2023/01/13 05:52:33;;;;;;;2.43;0.60;;;9.20;99.90;;;;;;5053797;28;20443;-37
2023/01/13 05:54:59;;;;;;;1.30;0.50;;;9.30;99.90;;;;;;5053408;28;20956;-37
2023/01/13 05:57:25;;;;;;;1.27;0.67;;;9.20;99.90;;;;;;5052049;28;20493;-38
2023/01/13 05:59:50;;;;;;;1.33;0.60;;;9.30;99.90;;;;;;5051244;28;20170;-37
2023/01/13 06:02:16;;;;;;;1.33;0.50;;;9.30;99.90;;;;;;5050294;28;20188;-37
2023/01/13 06:04:41;;;;;;;2.97;0.60;;;9.30;99.90;;;;;;5050501;28;20236;-37
2023/01/13 06:07:09;;;;;;;2.80;0.83;;;9.30;99.90;;;;;;5052895;28;20188;-38
2023/01/13 06:09:34;;;;;;;2.50;0.57;;;9.20;1.00;;;;;;5050831;28;20181;-37
2023/01/13 06:12:00;;;;;;;1.33;0.60;;;9.20;1.00;;;;;;5051608;28;20517;-38
2023/01/13 06:14:38;;;;;;;1.47;0.80;;;9.20;1.00;;;;;;5050886;28;20276;-37
2023/01/13 06:17:09;;;;;;;1.63;0.60;;;9.20;1.00;;;;;;5048511;28;20843;-37
2023/01/13 06:19:35;;;;;;;1.40;0.50;;;9.20;1.00;;;;;;5051602;28;20434;-37
2023/01/13 06:22:14;;;;;;;1.47;0.90;;;9.20;1.00;;;;;;5051945;28;20700;-38
2023/01/13 06:24:39;;;;;;;1.00;0.50;;;9.30;1.00;;;;;;5053111;28;20869;-37
2023/01/13 06:27:06;;;;;;;1.40;0.87;;;9.30;1.00;;;;;;5050840;28;20431;-38
2023/01/13 06:29:32;;;;;;;1.93;0.80;;;9.30;1.00;;;;;;5052969;28;20226;-38
2023/01/13 06:32:01;;;;;;;1.83;0.50;;;9.30;1.00;;;;;;5051475;28;20443;-38
2023/01/13 06:34:26;;;;;;;0.70;0.30;;;9.30;1.00;;;;;;5050244;28;20476;-38
2023/01/13 06:36:54;;;;;;;0.83;0.60;;;9.30;1.00;;;;;;5054352;28;20962;-38
2023/01/13 06:39:24;;;;;;;1.33;0.40;;;9.30;1.00;;;;;;5056171;28;20158;-36
2023/01/13 06:44:35;;;;;;;1.03;0.60;;;9.30;1.00;;;;;;5053157;28;20465;-37
2023/01/13 06:47:01;;;;;;;0.80;0.50;;;9.30;1.00;;;;;;5055797;28;21971;-37
2023/01/13 06:49:27;;;;;;;0.90;0.43;;;9.30;1.00;;;;;;5052351;28;20816;-40
2023/01/13 06:51:52;;;;;;;2.33;0.50;;;9.20;1.00;;;;;;5050728;28;20224;-37
2023/01/13 06:54:18;;;;;;;1.37;0.50;;;9.20;1.00;;;;;;5053018;28;20623;-36
2023/01/13 06:56:44;;;;;;;0.87;0.60;;;9.30;1.00;;;;;;5054374;28;20166;-37
2023/01/13 06:59:09;;;;;;;1.97;0.50;;;9.20;12.70;;;;;;5053117;28;20298;-37
2023/01/13 07:01:35;;;;;;;1.00;0.57;;;9.20;1.00;;;;;;5052618;28;20509;-37
2023/01/13 07:04:01;;;;;;;0.90;0.40;;;9.20;1.00;;;;;;5052588;28;20162;-36
2023/01/13 07:06:27;;;;;;;1.30;0.60;;;9.30;1.00;;;;;;5052489;28;20334;-37
2023/01/13 07:08:53;;;;;;;1.10;0.60;;;9.30;1.00;;;;;;5053685;28;20420;-37
2023/01/13 07:11:19;;;;;;;1.00;0.57;;;9.30;1.00;;;;;;5051904;28;20424;-37
2023/01/13 07:16:29;;;;;;;2.30;0.63;;;9.30;1.00;;;;;;5054181;28;20709;-37
2023/01/13 07:18:55;;;;;;;1.73;0.60;;;9.30;1.00;;;;;;5053836;28;20474;-37
2023/01/13 07:21:20;;;;;;;0.80;0.40;;;9.40;1.00;;;;;;5054561;28;20241;-37
2023/01/13 07:23:47;;;;;;;0.83;0.50;;;9.40;1.00;;;;;;5056875;28;20499;-36
2023/01/13 07:26:13;;;;;;;1.40;0.87;;;9.30;1.00;;;;;;5056471;28;20188;-37
2023/01/13 07:28:40;;;;;;;1.70;0.57;;;9.30;1.00;;;;;;5055213;28;20428;-36
2023/01/13 07:31:15;;;;;;;3.07;0.50;;;9.30;1.00;;;;;;5058164;28;20416;-36
2023/01/13 07:33:41;;;;;;;0.80;0.40;;;9.30;1.00;;;;;;5055170;28;20415;-36
2023/01/13 07:36:07;;;;;;;0.70;0.30;;;9.40;1.00;;;;;;5055016;28;20521;-36
2023/01/13 07:38:33;;;;;;;0.87;0.30;;;9.40;1.00;;;;;;5054942;28;20637;-36
2023/01/13 07:43:30;;;;;;;0.73;0.40;;;9.40;1.00;;;;;;5055130;28;20408;-36
2023/01/13 07:43:48;;;;;;;0.80;0.40;;;9.40;1.00;;;;;;5054206;28;20979;-37
2023/01/13 07:46:14;;;;;;;1.17;0.50;;;9.40;1.00;;;;;;5053831;28;20434;-35
2023/01/13 07:48:40;;;;;;;1.23;0.30;;;9.40;1.00;;;;;;5055473;28;20479;-37
2023/01/13 07:51:08;;;;;;;0.70;0.30;;;9.40;1.00;;;;;;5054627;28;20416;-38
2023/01/13 07:53:35;;;;;;;1.50;0.43;;;9.50;1.00;;;;;;5054590;28;20704;-36
2023/01/13 07:56:01;;;;;;;1.00;0.40;;;9.40;1.00;;;;;;5054768;28;20827;-37
2023/01/13 07:58:27;;;;;;;1.97;0.50;;;9.40;1.00;;;;;;5055701;28;20428;-37
2023/01/13 08:00:53;;;;;;;0.80;0.37;;;9.40;1.00;;;;;;5055323;28;20677;-37
2023/01/13 08:03:18;;;;;;;0.80;0.40;;;9.50;1.00;;;;;;5058810;28;20556;-37
2023/01/13 08:05:44;;;;;;;1.20;0.70;;;9.50;1.00;;;;;;5058974;28;20420;-37
2023/01/13 08:08:10;;;;;;;1.00;0.50;;;9.50;1.00;;;;;;5061105;28;20259;-37
2023/01/13 08:10:38;;;;;;;1.20;0.53;;;9.50;1.00;;;;;;5056386;28;20456;-37
2023/01/13 08:13:16;;;;;;;1.43;0.60;;;9.50;1.00;;;;;;5057235;28;20544;-37
2023/01/13 08:15:43;;;;;;;0.70;0.30;;;9.60;1.00;;;;;;5056765;28;20878;-36
2023/01/13 08:18:08;;;;;;;1.17;0.43;;;9.80;99.90;;;;;;5056148;28;20515;-36
2023/01/13 08:20:34;;;;;;;1.03;0.50;;;9.80;1.00;;;;;;5057038;28;20412;-36
2023/01/13 08:23:00;;;;;;;1.57;0.60;;;9.80;1.00;;;;;;5054684;28;20213;-36
2023/01/13 08:25:27;;;;;;;2.13;0.50;;;9.80;1.00;;;;;;5053750;28;20279;-37
2023/01/13 08:27:53;;;;;;;1.00;0.40;;;9.70;99.90;;;;;;5055423;28;20185;-37
2023/01/13 08:30:19;;;;;;;1.60;0.70;;;9.60;1.00;;;;;;5056381;28;20438;-37
2023/01/13 08:32:46;;;;;;;1.20;0.70;;;9.50;1.00;;;;;;5054031;28;20475;-37
2023/01/13 08:35:12;;;;;;;1.47;0.57;;;9.40;99.90;;;;;;5054146;28;20225;-37
2023/01/13 08:37:38;;;;;;;1.93;0.70;;;9.30;1.00;;;;;;5052296;28;20824;-37
2023/01/13 08:40:05;;;;;;;1.10;0.60;;;9.20;1.00;;;;;;5053204;28;20436;-37
2023/01/13 08:42:31;;;;;;;2.93;0.67;;;9.20;83.80;;;;;;5050207;28;20509;-36
2023/01/13 08:44:56;;;;;;;0.93;0.50;;;9.30;37.50;;;;;;5050912;28;20425;-37
2023/01/13 08:47:22;;;;;;;1.20;0.60;;;9.20;1.00;;;;;;5051335;28;20277;-37
2023/01/13 08:49:48;;;;;;;2.37;0.93;;;9.20;99.90;;;;;;5052477;28;20529;-38
2023/01/13 08:52:14;;;;;;;1.37;0.90;;;9.10;99.90;;;;;;5054305;28;20419;-40
2023/01/13 08:54:40;;;;;;;1.30;0.80;;;9.10;1.00;;;;;;5054907;28;20236;-38
2023/01/13 08:57:06;;;;;;;1.03;0.57;;;9.00;1.00;;;;;;5055765;28;20184;-37
2023/01/13 08:59:32;;;;;;;1.60;0.77;;;8.90;84.60;;;;;;5056946;28;20428;-38
2023/01/13 09:01:58;;;;;;;1.40;0.80;;;8.90;99.90;;;;;;5055790;28;20415;-38
2023/01/13 09:04:26;;;;;;;1.83;0.67;;;8.80;1.00;;;;;;5055827;28;20432;-38
2023/01/13 09:06:52;;;;;;;3.00;0.70;;;8.60;1.00;;;;;;5053800;28;20174;-38
2023/01/13 09:09:18;;;;;;;1.27;0.60;;;8.60;1.00;;;;;;5055041;28;20424;-38
2023/01/13 09:14:32;;;;;;;2.03;0.87;;;8.40;99.90;;;;;;5053222;28;20209;-38
2023/01/13 09:16:58;;;;;;;2.40;0.90;;;8.40;99.90;;;;;;5052993;28;20758;-38
2023/01/13 09:19:24;;;;;;;1.90;0.80;;;8.40;99.90;;;;;;5053477;28;20452;-39
2023/01/13 09:21:51;;;;;;;1.00;0.50;;;8.40;99.90;;;;;;5054160;28;20691;-38
2023/01/13 09:24:18;;;;;;;1.53;0.60;;;8.30;99.90;;;;;;5052027;28;20428;-37
2023/01/13 09:26:43;;;;;;;1.63;0.67;;;8.30;99.90;;;;;;5051717;28;20459;-38
2023/01/13 09:29:09;;;;;;;0.87;0.40;;;8.30;20.80;;;;;;5051496;28;20456;-37
2023/01/13 09:31:35;;;;;;;0.90;0.43;;;8.30;99.90;;;;;;5050863;28;20178;-37
2023/01/13 09:36:46;;;;;;;1.17;0.60;;;8.40;99.90;;;;;;5052019;28;20173;-38
2023/01/13 09:39:12;;;;;;;0.90;0.60;;;8.40;99.90;;;;;;5053297;28;20428;-37
2023/01/13 09:44:31;;;;;;;2.20;1.10;;;8.40;99.90;;;;;;5053842;28;20643;-37
2023/01/13 09:47:02;;;;;;;1.37;0.60;;;8.40;99.90;;;;;;5053335;28;20436;-36
2023/01/13 09:49:28;;;;;;;0.80;0.60;;;8.40;1.00;;;;;;5054700;28;20571;-37
2023/01/13 09:51:57;;;;;;;1.63;0.50;;;8.50;99.90;;;;;;5051829;28;20744;-37
2023/01/13 09:54:43;;;;;;;2.20;0.87;;;8.30;98.60;;;;;;5051206;28;20216;-37
2023/01/13 09:57:15;;;;;;;1.10;0.60;;;8.20;1.00;;;;;;5054208;28;20412;-37
2023/01/13 09:59:40;;;;;;;1.43;0.63;;;8.00;99.90;;;;;;5052702;28;20428;-36
2023/01/13 10:02:21;;;;;;;1.27;0.60;;;7.90;99.90;;;;;;5049255;28;21007;-37
2023/01/13 10:05:14;;;;;;;0.77;0.40;;;7.90;99.90;;;;;;5051717;28;20856;-37
2023/01/13 10:07:48;;;;;;;1.57;0.63;;;7.70;99.90;;;;;;5050400;28;20411;-37
2023/01/13 10:10:20;;;;;;;1.83;0.60;;;7.70;1.00;;;;;;5050265;28;20526;-36
2023/01/13 10:15:31;;;;;;;1.00;0.50;;;7.70;1.00;;;;;;5052827;28;20774;-36
2023/01/13 10:18:12;;;;;;;2.47;0.83;;;7.80;1.00;;;;;;5051811;28;20460;-36
2023/01/13 10:21:14;;;;;;;2.10;0.63;;;8.10;1.00;;;;;;5051516;28;20172;-37
2023/01/13 10:23:54;;;;;;;2.70;0.43;;;9.40;1.00;;;;;;5053010;28;20424;-36
2023/01/13 10:26:47;;;;;;;2.80;0.77;;;10.60;99.90;;;;;;5051390;28;20420;-37
2023/01/13 10:29:25;;;;;;;2.23;0.50;;;11.60;66.30;;;;;;5050005;28;20451;-38
2023/01/13 10:31:52;;;;;;;2.40;0.40;;;12.70;99.90;;;;;;5053829;28;20411;-37
2023/01/13 10:34:19;;;;;;;0.90;0.43;;;12.20;99.90;;;;;;5054289;28;20468;-37
2023/01/13 10:36:59;;;;;;;1.00;0.47;;;12.30;99.90;;;;;;5052838;28;20465;-37
2023/01/13 10:39:25;;;;;;;0.90;0.40;;;11.80;1.00;;;;;;5053136;28;20435;-37
2023/01/13 10:42:03;;;;;;;0.90;0.50;;;11.20;1.00;;;;;;5051366;28;20412;-37
2023/01/13 10:44:29;;;;;;;2.70;0.70;;;10.80;99.90;;;;;;5052510;28;20576;-37
2023/01/13 10:46:57;;;;;;;1.73;0.60;;;10.30;60.60;;;;;;5052111;28;20424;-37
2023/01/13 10:49:35;;;;;;;0.97;0.50;;;9.70;1.00;;;;;;5052089;28;20749;-37
2023/01/13 10:52:02;;;;;;;1.47;0.50;;;9.20;1.00;;;;;;5052881;28;20476;-37
2023/01/13 10:54:28;;;;;;;1.17;0.70;;;8.80;1.00;;;;;;5052845;28;20472;-37
2023/01/13 10:57:18;;;;;;;1.10;0.40;;;8.50;1.00;;;;;;5054553;28;20554;-37
2023/01/13 10:59:44;;;;;;;2.33;0.70;;;8.20;1.00;;;;;;5054505;28;20448;-38
2023/01/13 11:02:26;;;;;;;2.20;0.77;;;8.00;1.00;;;;;;5055738;28;20477;-37
2023/01/13 11:04:52;;;;;;;2.33;0.50;;;7.90;99.90;;;;;;5056429;28;20432;-37
2023/01/13 11:07:41;;;;;;;2.90;0.80;;;7.80;99.90;;;;;;5055670;28;20552;-37
2023/01/13 11:10:15;;;;;;;1.10;0.50;;;7.60;22.00;;;;;;5053492;28;20181;-37
2023/01/13 11:13:08;;;;;;;2.10;0.80;;;7.50;99.90;;;;;;5053683;28;20652;-37
2023/01/13 11:15:48;;;;;;;1.00;0.60;;;7.40;99.90;;;;;;5054797;28;20524;-38
2023/01/13 11:18:17;;;;;;;2.27;0.70;;;7.30;99.90;;;;;;5056136;28;20513;-37
2023/01/13 11:20:45;;;;;;;1.53;1.00;;;7.20;99.90;;;;;;5055125;28;21047;-39
2023/01/13 11:23:21;;;;;;;1.10;0.47;;;7.10;99.90;;;;;;5054634;28;20420;-38
2023/01/13 11:25:51;;;;;;;3.70;1.30;;;7.10;99.90;;;;;;5055668;28;20822;-37
2023/01/13 11:28:26;;;;;;;2.20;0.80;;;6.90;99.90;;;;;;5056005;28;20939;-38
2023/01/13 11:30:55;;;;;;;2.10;0.73;;;7.00;1.00;;;;;;5056990;28;20692;-39
2023/01/13 11:33:29;;;;;;;2.30;0.60;;;6.90;1.00;;;;;;5054950;28;20543;-37
2023/01/13 11:36:03;;;;;;;2.43;1.10;;;6.80;1.00;;;;;;5054852;28;20468;-37
2023/01/13 11:38:46;;;;;;;1.90;0.67;;;6.80;99.90;;;;;;5053719;28;20719;-37
2023/01/13 11:41:42;;;;;;;1.50;0.73;;;7.30;99.90;;;;;;5053304;28;20722;-38
2023/01/13 11:44:26;;;;;;;1.97;0.60;;;7.50;99.90;;;;;;5047295;28;20441;-39
2023/01/13 11:46:52;;;;;;;2.13;0.50;;;7.70;1.00;;;;;;5052442;28;20408;-38
2023/01/13 11:49:25;;;;;;;1.53;0.93;;;7.90;1.00;;;;;;5056527;28;20487;-37
2023/01/13 11:52:02;;;;;;;1.30;0.70;;;8.20;6.50;;;;;;5054751;28;20421;-38
2023/01/13 11:55:04;;;;;;;1.10;0.57;;;8.30;1.00;;;;;;5054574;28;20463;-38
2023/01/13 11:57:50;;;;;;;0.87;0.40;;;8.10;1.00;;;;;;5031464;28;20473;-39
2023/01/13 12:00:35;;;;;;;1.47;0.53;;;7.80;99.90;;;;;;5055719;28;20977;-37
2023/01/13 12:03:27;;;;;;;1.20;0.60;;;7.80;99.90;;;;;;5057951;28;20443;-38
2023/01/13 12:06:18;;;;;;;1.53;0.73;;;8.10;99.90;;;;;;5053000;28;20593;-38
2023/01/13 12:08:59;;;;;;;2.13;1.10;;;8.10;1.00;;;;;;5055202;28;20442;-38
2023/01/13 12:14:46;;;;;;;2.50;1.03;;;8.00;99.90;;;;;;5053065;28;20463;-38
2023/01/13 12:17:39;;;;;;;2.63;1.00;;;8.20;1.00;;;;;;5052653;28;20416;-38
2023/01/13 12:20:23;;;;;;;3.67;1.03;;;8.60;99.90;;;;;;5052648;28;20420;-38
2023/01/13 12:22:52;;;;;;;2.07;1.10;;;9.10;1.00;;;;;;5053023;28;20764;-38
2023/01/13 12:25:22;;;;;;;1.80;0.80;;;9.70;1.00;;;;;;5035139;28;20424;-38
2023/01/13 12:27:58;;;;;;;1.97;0.70;;;11.00;1.00;;;;;;5051156;28;20427;-39
2023/01/13 12:30:26;;;;;;;1.77;0.70;;;12.30;1.00;;;;;;5050561;28;20476;-39
2023/01/13 12:32:56;;;;;;;3.13;0.70;;;13.60;99.90;;;;;;5048099;28;20424;-36
2023/01/13 12:35:33;;;;;;;2.00;0.70;;;14.20;8.20;;;;;;5050318;28;20798;-39
2023/01/13 12:38:35;;;;;;;2.90;1.13;;;14.70;1.00;;;;;;5047947;28;21092;-40
2023/01/13 12:41:01;;;;;;;2.07;0.83;;;14.40;1.00;;;;;;5050409;28;20414;-39
2023/01/13 12:46:18;;;;;;;4.27;1.17;;;14.40;1.00;;;;;;5050643;28;20847;-37
2023/01/13 12:48:56;;;;;;;3.00;1.20;;;15.30;1.00;;;;;;5048825;28;20485;-37
2023/01/13 12:51:38;;;;;;;4.70;1.20;;;14.80;1.00;;;;;;5049610;28;20408;-36
2023/01/13 12:54:29;;;;;;;2.63;1.10;;;14.00;1.00;;;;;;5048046;28;20518;-37
2023/01/13 12:56:59;;;;;;;3.87;1.50;;;14.20;1.00;;;;;;5050383;28;20884;-38
2023/01/13 12:59:24;;;;;;;5.23;1.40;;;14.90;1.00;;;;;;5049687;28;21378;-39
2023/01/13 13:02:09;;;;;;;6.57;2.03;;;14.50;1.00;;;;;;5052723;28;20428;-38
2023/01/13 13:04:45;;;;;;;3.73;1.37;;;14.90;1.00;;;;;;5050421;28;20210;-38
2023/01/13 13:07:15;;;;;;;5.00;1.30;;;14.70;1.00;;;;;;5051756;28;20408;-38
2023/01/13 13:09:50;;;;;;;2.97;1.47;;;14.30;1.00;;;;;;5051300;28;20436;-37
2023/01/13 13:15:34;;;;;;;6.63;1.47;;;13.60;1.00;;;;;;5052661;28;20526;-37
2023/01/13 13:18:00;;;;;;;2.60;1.43;;;13.20;1.00;;;;;;5051602;28;20428;-37
2023/01/13 13:21:02;;;;;;;4.60;1.30;;;12.60;1.00;;;;;;5053693;28;20539;-38
2023/01/13 13:23:47;;;;;;;2.97;1.30;;;13.10;1.00;;;;;;5052686;28;20181;-38
2023/01/13 13:26:22;;;;;;;3.53;1.33;;;13.00;1.00;;;;;;5052650;28;20712;-38
2023/01/13 13:29:25;;;;;;;3.00;1.20;;;13.30;1.00;;;;;;5051883;28;20428;-38
2023/01/13 13:32:06;;;;;;;4.90;1.50;;;13.60;1.00;;;;;;5054478;28;20867;-38
2023/01/13 13:34:51;;;;;;;2.07;0.90;;;13.30;1.00;;;;;;5035763;28;20460;-38
2023/01/13 13:46:45;;;;;;;3.30;1.17;;;13.90;1.00;;;;;;5034702;28;20421;-39
2023/01/13 13:48:38;;;;;;;3.80;1.27;;;14.10;1.00;;;;;;5032523;28;20670;-37
2023/01/13 13:51:39;;;;;;;6.23;1.80;;;13.40;1.00;;;;;;5046445;28;20441;-37
2023/01/13 13:54:10;;;;;;;3.13;1.30;;;12.90;1.00;;;;;;5028695;28;20195;-37
2023/01/13 13:56:41;;;;;;;2.73;1.30;;;12.70;1.00;;;;;;5031749;28;20460;-38
2023/01/13 13:59:21;;;;;;;9.83;2.60;;;12.50;1.00;;;;;;5030415;28;20440;-38
2023/01/13 14:01:59;;;;;;;7.33;3.20;;;12.10;1.00;;;;;;5032419;28;20512;-37
2023/01/13 14:04:28;;;;;;;7.57;2.77;;;11.50;1.00;;;;;;5035601;28;20725;-37
2023/01/13 14:06:56;;;;;;;2.93;1.10;;;10.90;1.00;;;;;;5037767;28;20417;-38
2023/01/13 14:09:23;;;;;;;6.97;1.70;;;10.20;18.60;;;;;;5032230;28;20475;-38
2023/01/13 14:11:57;;;;;;;3.30;1.70;;;9.70;99.90;;;;;;5031361;28;20417;-38
2023/01/13 14:14:24;;;;;;;5.40;2.80;;;9.40;1.00;;;;;;5031824;28;20432;-37
2023/01/13 14:16:50;;;;;;;4.10;1.83;;;9.20;99.90;;;;;;5035061;28;20475;-38
2023/01/13 14:19:22;;;;;;;3.87;1.50;;;9.00;89.10;;;;;;5033589;28;20437;-38
2023/01/13 14:21:47;;;;;;;5.77;3.10;;;8.90;1.00;;;;;;5031589;28;20417;-38
2023/01/13 14:24:15;;;;;;;6.03;2.03;;;8.90;95.70;;;;;;5031027;28;20429;-39
2023/01/13 14:26:40;;;;;;;3.87;1.80;;;8.70;99.90;;;;;;5030301;28;20261;-42